Annandale, New Jersey
Current Conditions -  °F | °C
As of 2:39 AM on Thursday 23 Oct 2014 (Local Time) from KSMQ Reporting Station
Overcast Overcast  
Wind Chill: 53°   Ceiling: 3200
Heat Index: 53°   Visibility: 10mi
Dew Point: 46°   Wind: 12mph
Humidity: 77%   Direction: 360°N
Pressure: 29.73"   Gusts: 21mph
Location:  40.65°N, 74.89°W
Report Text: KSMQ 230639Z AUTO 36010G18KT 10SM OVC032 12/08 A2973 RMK AO2 T01170078
Loading
Personal Weather Stations






























Interactive Weather Map
Tropical Storm Tracking
New forecast layout! Learn more

10-Day Weather Forecast

Advertisements
Track Severe Weather on mobile